Etusivu
METAR-TAF:

METAR-TAF

Lentoasemat :

Istres, Ranska

Leveyspiiri: 43-31N, Pituuspiiri: 004-56E, korkeus merenpinnasta: 23 m

Tämänhetkinen sää

Tämä raportti tehtiin 31 minuuttia sitten, kello 10.30 UTC
Tuuli 3 kn eri suunnista
Lämpötila 29°C
Kosteus 31%
Ilmanpaine 1016 hPa
Näkyvyys 10 km tai enemmän
ei pilviä alle 1500 m:ssä eikä cumulonimbus-pilviä

METAR: LFMI 081030Z AUTO VRB03KT CAVOK 29/10 Q1016 NOSIG

Aika: 13:01 (11:01 UTC)

Sääennuste

Tämä raportti tehtiin 3 tuntia ja 1 minuuttia sitten, kello 08.00 UTC
Ennuste voimassa 08. päivästä klo 09 UTC - 09. päivään klo 09 UTC
Tuuli 5 kn eri suunnista
Näkyvyys 10 km tai enemmän
ei pilviä alle 1500 m:ssä eikä cumulonimbus-pilviä
Tulossa
08. päivästä klo 12 UTC - 08. päivään klo 14 UTC
Tuuli 10 kn etelästä/lounaasta
Tulossa
08. päivästä klo 19 UTC - 08. päivään klo 21 UTC
Tuuli 5 kn eri suunnista

TAF: LFMI 080800Z 0809/0909 VRB05KT CAVOK BECMG 0812/0814 20010KT BECMG 0819/0821 VRB05KT

Säähavainnot ja -ennusteet yli 4000 lentoasemalta (METAR- ja TAF-raportit).

Käytössä olevat sääasemat on merkitty karttaan keltaisilla ja punaisilla pisteillä.

Aseta hiiri pisteen päälle nähdäksesi sääaseman nimen.

Klikkaa sitten nähdäksesi säähavainnot ja -ennusteet.

Kartan vaihtaminen: klikkaa mustalla rastilla varustettuja vihreitä pisteitä, niin voit zoomata sisään; viivalla varustettua vihreää pistettä, niin voit zoomata ulos tai vihreitä nuolia, niin pääset viereisille kartoille.


METAR-TAF: